createdAt,value
2017-04-22T00:00:46.702Z,22.7
2017-04-22T00:01:54.787Z,22.8
2017-04-22T00:03:02.878Z,22.8
2017-04-22T00:04:10.968Z,22.8
2017-04-22T00:05:19.049Z,22.8
2017-04-22T00:06:27.144Z,22.8
2017-04-22T00:07:35.231Z,22.8
2017-04-22T00:08:43.323Z,22.8
2017-04-22T00:09:51.406Z,22.7
2017-04-22T00:10:59.498Z,22.8
2017-04-22T00:12:07.585Z,22.7
2017-04-22T00:13:15.670Z,22.8
2017-04-22T00:14:23.760Z,22.8
2017-04-22T00:15:31.848Z,22.8
2017-04-22T00:16:39.937Z,22.8
2017-04-22T00:17:48.014Z,22.7
2017-04-22T00:18:56.106Z,22.8
2017-04-22T00:20:04.198Z,22.9
2017-04-22T00:21:12.287Z,22.8
2017-04-22T00:22:20.376Z,22.7
2017-04-22T00:23:28.466Z,22.8
2017-04-22T00:24:36.549Z,22.8
2017-04-22T00:25:44.641Z,22.8
2017-04-22T00:26:52.726Z,22.7
2017-04-22T00:28:00.811Z,22.8
2017-04-22T00:29:08.899Z,22.8
2017-04-22T00:30:16.989Z,22.8
2017-04-22T00:31:25.081Z,22.8
2017-04-22T00:32:33.186Z,22.8
2017-04-22T00:33:41.248Z,22.8
2017-04-22T00:34:49.334Z,22.8
2017-04-22T00:35:57.592Z,22.7
2017-04-22T00:37:05.506Z,22.8
2017-04-22T00:38:13.600Z,22.8
2017-04-22T00:39:21.910Z,22.7
2017-04-22T00:40:29.766Z,22.8
2017-04-22T00:41:37.854Z,22.6
2017-04-22T00:42:45.942Z,22.8
2017-04-22T00:43:54.029Z,22.6
2017-04-22T00:45:02.111Z,22.7
2017-04-22T00:46:10.257Z,22.6
2017-04-22T00:47:18.296Z,22.7
2017-04-22T00:48:26.380Z,22.7
2017-04-22T00:49:34.476Z,22.6
2017-04-22T00:50:42.562Z,22.6
2017-04-22T00:51:50.645Z,22.6
2017-04-22T00:52:58.734Z,22.7
2017-04-22T00:54:06.841Z,22.6
2017-04-22T00:55:15.706Z,22.6
2017-04-22T00:56:23.000Z,22.6
2017-04-22T00:57:31.088Z,22.6
2017-04-22T00:58:39.173Z,22.6
2017-04-22T00:59:47.266Z,22.6
2017-04-22T01:00:55.348Z,22.6
2017-04-22T01:02:03.443Z,22.6
2017-04-22T01:03:11.532Z,22.6
2017-04-22T01:04:19.615Z,22.6
2017-04-22T01:05:27.708Z,22.7
2017-04-22T01:06:35.794Z,22.6
2017-04-22T01:07:43.889Z,22.6
2017-04-22T01:08:51.973Z,22.6
2017-04-22T01:10:00.066Z,22.6
2017-04-22T01:11:08.152Z,22.6
2017-04-22T01:12:16.236Z,22.6
2017-04-22T01:13:24.324Z,22.6
2017-04-22T01:14:32.411Z,22.6
2017-04-22T01:15:40.494Z,22.6
2017-04-22T01:16:48.581Z,22.6
2017-04-22T01:17:56.674Z,22.6
2017-04-22T01:19:04.759Z,22.6
2017-04-22T01:20:12.848Z,22.6
2017-04-22T01:21:20.941Z,22.6
2017-04-22T01:22:29.027Z,22.7
2017-04-22T01:23:37.109Z,22.6
2017-04-22T01:24:45.196Z,22.6
2017-04-22T01:25:53.283Z,22.6
2017-04-22T01:27:01.429Z,22.6
2017-04-22T01:28:09.453Z,22.6
2017-04-22T01:29:17.545Z,22.6
2017-04-22T01:30:25.630Z,22.6
2017-04-22T01:31:33.718Z,22.6
2017-04-22T01:32:41.798Z,22.6
2017-04-22T01:33:49.888Z,22.6
2017-04-22T01:34:57.988Z,22.6
2017-04-22T01:36:06.058Z,22.6
2017-04-22T01:37:14.151Z,22.6
2017-04-22T01:38:22.233Z,22.6
2017-04-22T01:39:30.318Z,22.6
2017-04-22T01:40:38.408Z,22.6
2017-04-22T01:41:46.504Z,22.6
2017-04-22T01:42:54.580Z,22.6
2017-04-22T01:44:02.662Z,22.6
2017-04-22T01:45:10.754Z,22.6
2017-04-22T01:46:18.839Z,22.6
2017-04-22T01:47:27.138Z,22.6
2017-04-22T01:48:35.016Z,22.6
2017-04-22T01:49:43.104Z,22.6
2017-04-22T01:50:51.183Z,22.6
2017-04-22T01:51:59.275Z,22.6
2017-04-22T01:53:07.371Z,22.6
2017-04-22T01:54:15.456Z,22.6
2017-04-22T01:55:23.538Z,22.6
2017-04-22T01:56:31.627Z,22.7
2017-04-22T01:57:39.716Z,22.6
2017-04-22T01:58:47.805Z,22.6
2017-04-22T01:59:55.886Z,22.6
2017-04-22T02:01:03.975Z,22.6
2017-04-22T02:02:12.059Z,22.6
2017-04-22T02:03:20.144Z,22.6
2017-04-22T02:04:28.240Z,22.6
2017-04-22T02:05:36.322Z,22.6
2017-04-22T02:06:44.769Z,22.6
2017-04-22T02:07:52.492Z,22.6
2017-04-22T02:09:00.585Z,22.7
2017-04-22T02:10:08.668Z,22.6
2017-04-22T02:11:16.750Z,22.6
2017-04-22T02:12:24.840Z,22.7
2017-04-22T02:13:32.929Z,22.6
2017-04-22T02:14:41.012Z,22.6
2017-04-22T02:15:49.099Z,22.6
2017-04-22T02:16:57.216Z,22.6
2017-04-22T02:18:05.273Z,22.6
2017-04-22T02:19:13.358Z,22.6
2017-04-22T02:20:21.455Z,22.6
2017-04-22T02:21:29.544Z,22.5
2017-04-22T02:22:37.629Z,22.6
2017-04-22T02:23:45.711Z,22.6
2017-04-22T02:24:53.807Z,22.6
2017-04-22T02:26:01.894Z,22.6
2017-04-22T02:27:09.990Z,22.5
2017-04-22T02:28:18.071Z,22.6
2017-04-22T02:29:26.157Z,22.6
2017-04-22T02:30:34.242Z,22.5
2017-04-22T02:31:42.323Z,22.5
2017-04-22T02:32:50.499Z,22.6
2017-04-22T02:33:58.604Z,22.6
2017-04-22T02:35:06.582Z,22.6
2017-04-22T02:36:14.673Z,22.5
2017-04-22T02:37:22.755Z,22.5
2017-04-22T02:38:31.270Z,22.5
2017-04-22T02:39:38.930Z,22.5
2017-04-22T02:40:47.020Z,22.5
2017-04-22T02:41:55.105Z,22.6
2017-04-22T02:43:03.483Z,22.5
2017-04-22T02:44:11.278Z,22.5
2017-04-22T02:45:19.366Z,22.5
2017-04-22T02:46:27.452Z,22.5
2017-04-22T02:47:35.537Z,22.5
2017-04-22T02:48:43.624Z,22.5
2017-04-22T02:49:51.710Z,22.5
2017-04-22T02:50:59.795Z,22.5
2017-04-22T02:52:08.003Z,22.5
2017-04-22T02:53:15.971Z,22.6
2017-04-22T02:54:24.054Z,22.5
2017-04-22T02:55:32.144Z,22.5
2017-04-22T02:56:40.228Z,22.5
2017-04-22T02:57:48.316Z,22.5
2017-04-22T02:58:56.399Z,22.5
2017-04-22T03:00:04.487Z,22.5
2017-04-22T03:01:12.574Z,22.5
2017-04-22T03:02:20.658Z,22.5
2017-04-22T03:03:28.748Z,22.4
2017-04-22T03:04:36.834Z,22.5
2017-04-22T03:05:44.920Z,22.5
2017-04-22T03:06:53.007Z,22.6
2017-04-22T03:08:01.095Z,22.6
2017-04-22T03:09:09.289Z,22.5
2017-04-22T03:10:17.263Z,22.6
2017-04-22T03:11:25.350Z,22.5
2017-04-22T03:12:33.437Z,22.6
2017-04-22T03:13:41.946Z,22.5
2017-04-22T03:14:49.607Z,22.4
2017-04-22T03:15:57.698Z,22.5
2017-04-22T03:17:05.782Z,22.4
2017-04-22T03:18:13.877Z,22.5
2017-04-22T03:19:21.961Z,22.4
2017-04-22T03:20:30.050Z,22.4
2017-04-22T03:21:38.132Z,22.5
2017-04-22T03:22:46.212Z,22.4
2017-04-22T03:23:54.334Z,22.4
2017-04-22T03:25:02.392Z,22.5
2017-04-22T03:26:11.141Z,22.5
2017-04-22T03:27:18.566Z,22.4
2017-04-22T03:28:26.653Z,22.5
2017-04-22T03:29:34.736Z,22.5
2017-04-22T03:30:42.827Z,22.4
2017-04-22T03:31:50.915Z,22.4
2017-04-22T03:32:59.004Z,22.4
2017-04-22T03:34:07.109Z,22.4
2017-04-22T03:35:15.178Z,22.5
2017-04-22T03:36:23.262Z,22.4
2017-04-22T03:37:31.347Z,22.5
2017-04-22T03:38:39.435Z,22.5
2017-04-22T03:39:47.522Z,22.4
2017-04-22T03:40:55.611Z,22.4
2017-04-22T03:42:03.692Z,22.4
2017-04-22T03:43:11.781Z,22.4
2017-04-22T03:44:19.877Z,22.4
2017-04-22T03:45:27.966Z,22.4
2017-04-22T03:46:36.046Z,22.3
2017-04-22T03:47:44.138Z,22.4
2017-04-22T03:48:52.492Z,22.3
2017-04-22T03:50:00.311Z,22.4
2017-04-22T03:51:08.402Z,22.4
2017-04-22T03:52:16.486Z,22.4
2017-04-22T03:53:24.568Z,22.4
2017-04-22T03:54:32.659Z,22.4
2017-04-22T03:55:40.809Z,22.4
2017-04-22T03:56:48.839Z,22.4
2017-04-22T03:57:56.921Z,22.3
2017-04-22T03:59:05.010Z,22.4
2017-04-22T04:00:13.097Z,22.4
2017-04-22T04:01:21.185Z,22.4
2017-04-22T04:02:29.275Z,22.4
2017-04-22T04:03:37.359Z,22.4
2017-04-22T04:04:45.442Z,22.4
2017-04-22T04:05:53.528Z,22.4
2017-04-22T04:07:01.619Z,22.3
2017-04-22T04:08:09.705Z,22.3
2017-04-22T04:09:17.789Z,22.4
2017-04-22T04:10:25.879Z,22.4
2017-04-22T04:11:33.967Z,22.4
2017-04-22T04:12:42.054Z,22.3
2017-04-22T04:13:50.140Z,22.4
2017-04-22T04:14:58.232Z,22.3
2017-04-22T04:16:06.320Z,22.4
2017-04-22T04:17:14.402Z,22.3
2017-04-22T04:18:22.497Z,22.4
2017-04-22T04:19:30.583Z,22.3
2017-04-22T04:20:38.668Z,22.4
2017-04-22T04:21:46.753Z,22.3
2017-04-22T04:22:54.842Z,22.3
2017-04-22T04:24:02.928Z,22.4
2017-04-22T04:25:11.014Z,22.3
2017-04-22T04:26:19.108Z,22.3
2017-04-22T04:27:27.197Z,22.4
2017-04-22T04:28:35.278Z,22.3
2017-04-22T04:29:43.366Z,22.3
2017-04-22T04:30:51.454Z,22.3
2017-04-22T04:31:59.540Z,22.3
2017-04-22T04:33:07.627Z,22.3
2017-04-22T04:34:15.713Z,22.2
2017-04-22T04:35:23.798Z,22.3
2017-04-22T04:36:31.880Z,22.3
2017-04-22T04:37:39.972Z,22.3
2017-04-22T04:38:48.066Z,22.2
2017-04-22T04:39:56.144Z,22.3
2017-04-22T04:41:04.228Z,22.3
2017-04-22T04:42:12.316Z,22.3
2017-04-22T04:43:20.402Z,22.3
2017-04-22T04:44:28.491Z,22.3
2017-04-22T04:45:36.572Z,22.3
2017-04-22T04:46:44.662Z,22.2
2017-04-22T04:47:52.747Z,22.3
2017-04-22T04:49:00.831Z,22.3
2017-04-22T04:50:08.921Z,22.2
2017-04-22T04:51:17.006Z,22.2
2017-04-22T04:52:25.088Z,22.3
2017-04-22T04:53:33.177Z,22.2
2017-04-22T04:54:41.267Z,22.2
2017-04-22T04:55:49.352Z,22.3
2017-04-22T04:56:57.435Z,22.2
2017-04-22T04:58:05.525Z,22.3
2017-04-22T04:59:13.614Z,22.2
2017-04-22T05:00:21.704Z,22.2
2017-04-22T05:01:29.787Z,22.2
2017-04-22T05:02:37.873Z,22.2
2017-04-22T05:03:45.956Z,22.2
2017-04-22T05:04:54.043Z,22.2
2017-04-22T05:06:02.134Z,22.1
2017-04-22T05:07:10.221Z,22.2
2017-04-22T05:08:18.308Z,22.2
2017-04-22T05:09:26.389Z,22.2
2017-04-22T05:10:34.478Z,22.2
2017-04-22T05:11:42.565Z,22.2
2017-04-22T05:12:50.689Z,22.2
2017-04-22T05:13:58.744Z,22.2
2017-04-22T05:15:06.842Z,22.2
2017-04-22T05:16:14.913Z,22.1
2017-04-22T05:17:23.005Z,22.1
2017-04-22T05:18:31.096Z,22.1
2017-04-22T05:19:39.180Z,22.1
2017-04-22T05:20:47.267Z,22.0
2017-04-22T05:21:55.415Z,22.1
2017-04-22T05:23:03.443Z,22.0
2017-04-22T05:24:11.533Z,22.1
2017-04-22T05:25:19.621Z,22.0
2017-04-22T05:26:27.709Z,22.1
2017-04-22T05:27:35.792Z,22.1
2017-04-22T05:28:43.885Z,22.1
2017-04-22T05:29:51.968Z,22.1
2017-04-22T05:31:00.053Z,22.0
2017-04-22T05:32:08.194Z,22.1
2017-04-22T05:33:16.228Z,22.0
2017-04-22T05:34:24.322Z,22.0
2017-04-22T05:35:32.407Z,22.0
2017-04-22T05:36:40.493Z,22.0
2017-04-22T05:37:48.636Z,22.1
2017-04-22T05:38:56.661Z,22.0
2017-04-22T05:40:04.747Z,22.0
2017-04-22T05:41:12.836Z,21.9
2017-04-22T05:42:20.923Z,21.9
2017-04-22T05:43:29.009Z,21.9
2017-04-22T05:44:37.093Z,21.9
2017-04-22T05:45:45.183Z,22.0
2017-04-22T05:46:53.268Z,22.0
2017-04-22T05:48:01.351Z,22.0
2017-04-22T05:49:09.441Z,22.0
2017-04-22T05:50:17.526Z,21.9
2017-04-22T05:51:25.609Z,21.9
2017-04-22T05:52:33.695Z,21.9
2017-04-22T05:53:41.783Z,21.9
2017-04-22T05:54:49.879Z,21.9
2017-04-22T05:55:57.968Z,21.9
2017-04-22T05:57:06.046Z,21.9
2017-04-22T05:58:14.136Z,21.9
2017-04-22T05:59:22.222Z,21.9
2017-04-22T06:00:30.310Z,21.9
2017-04-22T06:01:38.398Z,21.9
2017-04-22T06:02:46.484Z,21.9
2017-04-22T06:03:54.568Z,21.9
2017-04-22T06:05:02.666Z,21.9
2017-04-22T06:06:10.750Z,21.9
2017-04-22T06:07:18.845Z,21.9
2017-04-22T06:08:26.934Z,21.8
2017-04-22T06:09:35.015Z,21.9
2017-04-22T06:10:43.100Z,21.8
2017-04-22T06:11:51.184Z,21.8
2017-04-22T06:12:59.274Z,21.8
2017-04-22T06:14:07.365Z,21.8
2017-04-22T06:15:15.448Z,21.8
2017-04-22T06:16:23.538Z,21.8
2017-04-22T06:17:31.627Z,21.8
2017-04-22T06:18:39.713Z,21.8
2017-04-22T06:19:47.794Z,21.8
2017-04-22T06:20:55.885Z,21.8
2017-04-22T06:22:03.971Z,21.7
2017-04-22T06:23:12.053Z,21.8
2017-04-22T06:24:20.147Z,21.8
2017-04-22T06:25:28.231Z,21.8
2017-04-22T06:26:36.312Z,21.8
2017-04-22T06:27:44.399Z,21.8
2017-04-22T06:28:52.491Z,21.7
2017-04-22T06:30:00.593Z,21.7
2017-04-22T06:31:08.664Z,21.7
2017-04-22T06:32:16.766Z,21.7
2017-04-22T06:33:24.839Z,21.7
2017-04-22T06:34:32.932Z,21.7
2017-04-22T06:35:41.021Z,21.7
2017-04-22T06:36:49.112Z,21.7
2017-04-22T06:37:57.191Z,21.7
2017-04-22T06:39:05.274Z,21.7
2017-04-22T06:40:13.366Z,21.7
2017-04-22T06:41:21.529Z,21.7
2017-04-22T06:42:29.564Z,21.7
2017-04-22T06:43:37.625Z,21.6
2017-04-22T06:44:45.714Z,21.6
2017-04-22T06:45:53.800Z,21.6
2017-04-22T06:47:01.887Z,21.6
2017-04-22T06:48:09.971Z,21.7
2017-04-22T06:49:18.056Z,21.6
2017-04-22T06:50:26.142Z,21.7
2017-04-22T06:51:34.226Z,21.8
2017-04-22T06:52:42.313Z,21.6
2017-04-22T06:53:50.406Z,21.6
2017-04-22T06:54:58.483Z,21.7
2017-04-22T06:56:06.573Z,21.7
2017-04-22T06:57:14.989Z,21.7
2017-04-22T06:58:22.746Z,21.7
2017-04-22T06:59:30.828Z,21.6
2017-04-22T07:00:38.925Z,21.6
2017-04-22T07:01:47.042Z,21.6
2017-04-22T07:02:55.084Z,21.6
2017-04-22T07:04:03.170Z,21.6
2017-04-22T07:05:11.292Z,21.6
2017-04-22T07:06:19.407Z,21.6
2017-04-22T07:07:27.430Z,21.6
2017-04-22T07:08:35.581Z,21.6
2017-04-22T07:09:44.597Z,21.6
2017-04-22T07:10:51.684Z,21.6
2017-04-22T07:11:59.772Z,21.6
2017-04-22T07:13:07.859Z,21.6
2017-04-22T07:14:15.951Z,21.6
2017-04-22T07:15:24.029Z,21.6
2017-04-22T07:16:32.116Z,21.6
2017-04-22T07:17:40.201Z,21.6
2017-04-22T07:18:48.283Z,21.6
2017-04-22T07:19:56.373Z,21.6
2017-04-22T07:21:04.460Z,21.6
2017-04-22T07:22:12.546Z,21.6
2017-04-22T07:23:20.638Z,21.5
2017-04-22T07:24:28.715Z,21.5
2017-04-22T07:25:36.798Z,21.5
2017-04-22T07:26:44.884Z,21.5
2017-04-22T07:27:52.973Z,21.5
2017-04-22T07:29:01.059Z,21.5
2017-04-22T07:30:09.141Z,21.5
2017-04-22T07:31:17.231Z,21.5
2017-04-22T07:32:25.558Z,21.6
2017-04-22T07:33:33.434Z,21.5
2017-04-22T07:34:41.882Z,21.5
2017-04-22T07:35:49.577Z,21.5
2017-04-22T07:36:57.661Z,21.5
2017-04-22T07:38:05.742Z,21.5
2017-04-22T07:39:13.858Z,21.4
2017-04-22T07:40:21.919Z,21.4
2017-04-22T07:41:29.997Z,21.4
2017-04-22T07:42:38.085Z,21.4
2017-04-22T07:43:46.177Z,21.4
2017-04-22T07:44:54.265Z,21.4
2017-04-22T07:46:02.353Z,21.3
2017-04-22T07:47:10.442Z,21.4
2017-04-22T07:48:18.643Z,21.4
2017-04-22T07:49:26.968Z,21.4
2017-04-22T07:50:34.695Z,21.4
2017-04-22T07:51:42.784Z,21.4
2017-04-22T07:52:51.182Z,21.4
2017-04-22T07:53:58.958Z,21.4
2017-04-22T07:55:07.044Z,21.4
2017-04-22T07:56:15.132Z,21.4
2017-04-22T07:57:23.220Z,21.4
2017-04-22T07:58:31.306Z,21.4
2017-04-22T07:59:39.391Z,21.4
2017-04-22T08:00:47.480Z,21.4
2017-04-22T08:01:55.560Z,21.4
2017-04-22T08:03:03.655Z,21.3
2017-04-22T08:04:11.736Z,21.3
2017-04-22T08:05:19.818Z,21.3
2017-04-22T08:06:27.905Z,21.3
2017-04-22T08:07:35.995Z,21.3
2017-04-22T08:08:44.085Z,21.3
2017-04-22T08:09:52.228Z,21.3
2017-04-22T08:11:00.252Z,21.3
2017-04-22T08:12:08.338Z,21.3
2017-04-22T08:13:16.418Z,21.3
2017-04-22T08:14:24.506Z,21.3
2017-04-22T08:15:32.594Z,21.3
2017-04-22T08:16:40.677Z,21.3
2017-04-22T08:17:48.761Z,21.3
2017-04-22T08:18:56.850Z,21.3
2017-04-22T08:20:04.937Z,21.2
2017-04-22T08:21:13.022Z,21.2
2017-04-22T08:22:21.110Z,21.2
2017-04-22T08:23:29.267Z,21.2
2017-04-22T08:24:37.284Z,21.2
2017-04-22T08:25:45.367Z,21.2
2017-04-22T08:26:53.454Z,21.2
2017-04-22T08:28:01.543Z,21.2
2017-04-22T08:29:09.623Z,21.3
2017-04-22T08:30:17.714Z,21.1
2017-04-22T08:31:25.799Z,21.2
2017-04-22T08:32:33.886Z,21.1
2017-04-22T08:33:41.968Z,21.1
2017-04-22T08:34:50.052Z,21.1
2017-04-22T08:35:58.140Z,21.2
2017-04-22T08:37:06.222Z,21.1
2017-04-22T08:38:14.312Z,21.2
2017-04-22T08:39:22.399Z,21.1
2017-04-22T08:40:30.483Z,21.3
2017-04-22T08:41:38.567Z,21.1
2017-04-22T08:42:46.655Z,21.1
2017-04-22T08:43:54.738Z,21.2
2017-04-22T08:45:02.834Z,21.1
2017-04-22T08:46:10.912Z,21.1
2017-04-22T08:47:18.999Z,21.2
2017-04-22T08:48:27.106Z,21.1
2017-04-22T08:49:35.193Z,21.1
2017-04-22T08:50:43.262Z,21.1
2017-04-22T08:51:51.805Z,21.1
2017-04-22T08:52:59.432Z,21.1
2017-04-22T08:54:07.519Z,21.2
2017-04-22T08:55:15.613Z,21.1
2017-04-22T08:56:23.692Z,21.1
2017-04-22T08:57:31.771Z,21.1
2017-04-22T08:58:39.859Z,21.1
2017-04-22T08:59:47.947Z,21.1
2017-04-22T09:00:56.029Z,21.1
2017-04-22T09:02:04.119Z,21.1
2017-04-22T09:03:12.204Z,21.1
2017-04-22T09:04:20.287Z,21.1
2017-04-22T09:05:28.373Z,21.1
2017-04-22T09:06:36.469Z,21.1
2017-04-22T09:07:44.550Z,21.1
2017-04-22T09:08:52.630Z,21.1
2017-04-22T09:10:01.013Z,21.0
2017-04-22T09:11:08.805Z,21.0
2017-04-22T09:12:16.885Z,21.1
2017-04-22T09:13:24.989Z,21.1
2017-04-22T09:14:33.071Z,21.1
2017-04-22T09:15:41.155Z,21.1
2017-04-22T09:16:49.237Z,21.1
2017-04-22T09:17:57.329Z,21.0
2017-04-22T09:19:05.417Z,21.0
2017-04-22T09:20:13.498Z,21.0
2017-04-22T09:21:21.598Z,21.0
2017-04-22T09:22:29.674Z,21.0
2017-04-22T09:23:37.769Z,21.0
2017-04-22T09:24:45.844Z,21.0
2017-04-22T09:25:53.931Z,21.1
2017-04-22T09:27:02.068Z,21.1
2017-04-22T09:28:10.099Z,21.0
2017-04-22T09:29:18.190Z,21.0
2017-04-22T09:30:26.274Z,21.0
2017-04-22T09:31:34.359Z,21.0
2017-04-22T09:32:42.445Z,21.1
2017-04-22T09:33:50.534Z,21.1
2017-04-22T09:34:58.619Z,21.0
2017-04-22T09:36:06.702Z,20.9
2017-04-22T09:37:14.797Z,21.1
2017-04-22T09:38:22.884Z,20.9
2017-04-22T09:39:30.963Z,21.0
2017-04-22T09:40:39.050Z,20.9
2017-04-22T09:41:47.144Z,20.9
2017-04-22T09:42:55.231Z,21.0
2017-04-22T09:44:03.386Z,21.0
2017-04-22T09:45:11.394Z,21.0
2017-04-22T09:46:19.480Z,20.9
2017-04-22T09:47:27.567Z,20.9
2017-04-22T09:48:35.672Z,21.0
2017-04-22T09:49:43.737Z,20.9
2017-04-22T09:50:51.818Z,21.0
2017-04-22T09:51:59.903Z,20.9
2017-04-22T09:53:07.989Z,20.9
2017-04-22T09:54:16.074Z,20.9
2017-04-22T09:55:24.187Z,20.9
2017-04-22T09:56:32.244Z,20.9
2017-04-22T09:57:40.334Z,20.9
2017-04-22T09:58:48.419Z,20.9
2017-04-22T09:59:56.506Z,20.9
2017-04-22T10:01:04.594Z,20.9
2017-04-22T10:02:12.677Z,20.9
2017-04-22T10:03:20.761Z,20.9
2017-04-22T10:04:28.851Z,20.9
2017-04-22T10:05:36.935Z,20.9
2017-04-22T10:06:45.023Z,20.9
2017-04-22T10:07:53.109Z,20.8
2017-04-22T10:09:01.198Z,20.8
2017-04-22T10:10:09.353Z,20.8
2017-04-22T10:11:17.371Z,20.8
2017-04-22T10:12:25.460Z,20.9
2017-04-22T10:13:33.539Z,20.8
2017-04-22T10:14:41.620Z,20.9
2017-04-22T10:15:49.875Z,20.8
2017-04-22T10:16:57.801Z,20.8
2017-04-22T10:18:05.892Z,20.8
2017-04-22T10:19:13.980Z,20.8
2017-04-22T10:20:22.064Z,20.8
2017-04-22T10:21:30.571Z,20.8
2017-04-22T10:22:38.240Z,20.8
2017-04-22T10:23:46.314Z,20.8
2017-04-22T10:24:54.404Z,20.8
2017-04-22T10:26:02.490Z,20.8
2017-04-22T10:27:10.569Z,20.8
2017-04-22T10:28:18.868Z,20.8
2017-04-22T10:29:26.746Z,20.8
2017-04-22T10:30:34.830Z,20.8
2017-04-22T10:31:42.911Z,20.8
2017-04-22T10:32:51.009Z,20.8
2017-04-22T10:33:59.095Z,20.8
2017-04-22T10:35:07.177Z,20.8
2017-04-22T10:36:15.263Z,20.8
2017-04-22T10:37:23.349Z,20.8
2017-04-22T10:38:31.432Z,20.8
2017-04-22T10:39:39.517Z,20.9
2017-04-22T10:40:47.611Z,20.9
2017-04-22T10:41:55.695Z,20.7
2017-04-22T10:43:03.777Z,20.7
2017-04-22T10:44:11.858Z,20.8
2017-04-22T10:45:19.955Z,20.8
2017-04-22T10:46:28.068Z,20.7
2017-04-22T10:47:36.121Z,20.7
2017-04-22T10:48:44.209Z,20.7
2017-04-22T10:49:52.298Z,20.7
2017-04-22T10:51:00.379Z,20.7
2017-04-22T10:52:08.466Z,20.7
2017-04-22T10:53:16.553Z,20.7
2017-04-22T10:54:24.637Z,20.7
2017-04-22T10:55:32.718Z,20.7
2017-04-22T10:56:40.806Z,20.6
2017-04-22T10:57:48.892Z,20.7
2017-04-22T10:58:56.976Z,20.7
2017-04-22T11:00:05.062Z,20.7
2017-04-22T11:01:13.156Z,20.7
2017-04-22T11:02:21.230Z,20.7
2017-04-22T11:03:29.314Z,20.7
2017-04-22T11:04:37.404Z,20.7
2017-04-22T11:05:45.490Z,20.7
2017-04-22T11:06:53.570Z,20.7
2017-04-22T11:08:01.662Z,20.6
2017-04-22T11:09:09.750Z,20.7
2017-04-22T11:10:17.836Z,20.7
2017-04-22T11:11:25.919Z,20.7
2017-04-22T11:12:34.008Z,20.7
2017-04-22T11:13:42.088Z,20.7
2017-04-22T11:14:50.175Z,20.6
2017-04-22T11:15:58.262Z,20.6
2017-04-22T11:17:06.351Z,20.6
2017-04-22T11:18:14.429Z,20.6
2017-04-22T11:19:22.515Z,20.6
2017-04-22T11:20:30.604Z,20.6
2017-04-22T11:21:38.688Z,20.6
2017-04-22T11:22:46.770Z,20.6
2017-04-22T11:23:54.862Z,20.6
2017-04-22T11:25:02.954Z,20.6
2017-04-22T11:26:11.033Z,20.6
2017-04-22T11:27:19.125Z,20.6
2017-04-22T11:28:27.209Z,20.6
2017-04-22T11:29:35.292Z,20.6
2017-04-22T11:30:43.376Z,20.6
2017-04-22T11:31:51.469Z,20.5
2017-04-22T11:32:59.553Z,20.6
2017-04-22T11:34:07.635Z,20.5
2017-04-22T11:35:15.722Z,20.4
2017-04-22T11:36:23.807Z,20.5
2017-04-22T11:37:31.888Z,20.6
2017-04-22T11:38:39.974Z,20.5
2017-04-22T11:39:48.073Z,20.5
2017-04-22T11:40:56.148Z,20.6
2017-04-22T11:42:04.229Z,20.5
2017-04-22T11:43:12.318Z,20.6
2017-04-22T11:44:20.405Z,20.5
2017-04-22T11:45:28.490Z,20.5
2017-04-22T11:46:36.568Z,20.5
2017-04-22T11:47:44.664Z,20.5
2017-04-22T11:48:52.753Z,20.5
2017-04-22T11:50:00.835Z,20.5
2017-04-22T11:51:08.924Z,20.5
2017-04-22T11:52:17.010Z,20.5
2017-04-22T11:53:25.090Z,20.5
2017-04-22T11:54:33.182Z,20.5
2017-04-22T11:55:41.265Z,20.5
2017-04-22T11:56:49.355Z,20.5
2017-04-22T11:57:57.437Z,20.5
2017-04-22T11:59:05.521Z,20.5
2017-04-22T12:00:13.609Z,20.5
2017-04-22T12:01:21.696Z,20.5
2017-04-22T12:02:29.777Z,20.5
2017-04-22T12:03:37.865Z,20.5
2017-04-22T12:04:45.949Z,20.5
2017-04-22T12:05:54.040Z,20.5
2017-04-22T12:07:02.120Z,20.5
2017-04-22T12:08:10.207Z,20.5
2017-04-22T12:09:18.296Z,20.5
2017-04-22T12:10:26.374Z,20.5
2017-04-22T12:11:34.474Z,20.6
2017-04-22T12:12:42.554Z,20.6
2017-04-22T12:13:50.634Z,20.6
2017-04-22T12:14:58.726Z,20.6
2017-04-22T12:16:06.811Z,20.6
2017-04-22T12:17:14.896Z,20.6
2017-04-22T12:18:22.979Z,20.6
2017-04-22T12:19:31.067Z,20.6
2017-04-22T12:20:39.162Z,20.6
2017-04-22T12:21:47.257Z,20.7
2017-04-22T12:22:55.323Z,20.7
2017-04-22T12:24:03.408Z,20.7
2017-04-22T12:25:11.494Z,20.7
2017-04-22T12:26:19.574Z,20.7
2017-04-22T12:27:27.668Z,20.6
2017-04-22T12:28:35.749Z,20.7
2017-04-22T12:29:43.840Z,20.7
2017-04-22T12:30:51.930Z,20.8
2017-04-22T12:32:00.005Z,20.7
2017-04-22T12:33:08.094Z,20.8
2017-04-22T12:34:16.176Z,20.8
2017-04-22T12:35:24.262Z,20.8
2017-04-22T12:36:32.344Z,20.8
2017-04-22T12:37:40.429Z,20.9
2017-04-22T12:38:48.517Z,20.8
2017-04-22T12:39:56.608Z,20.8
2017-04-22T12:41:04.690Z,20.9
2017-04-22T12:42:12.780Z,20.9
2017-04-22T12:43:20.866Z,20.9
2017-04-22T12:44:28.949Z,20.9
2017-04-22T12:45:37.035Z,20.9
2017-04-22T12:46:45.200Z,20.9
2017-04-22T12:47:53.213Z,21.0
2017-04-22T12:49:01.301Z,21.0
2017-04-22T12:50:09.387Z,20.9
2017-04-22T12:51:17.474Z,20.9
2017-04-22T12:52:25.554Z,21.0
2017-04-22T12:53:33.919Z,21.1
2017-04-22T12:54:41.729Z,21.0
2017-04-22T12:55:49.810Z,21.0
2017-04-22T12:56:57.901Z,21.1
2017-04-22T12:58:06.034Z,21.0
2017-04-22T12:59:14.076Z,21.0
2017-04-22T13:00:22.158Z,21.1
2017-04-22T13:01:30.245Z,21.2
2017-04-22T13:02:38.333Z,21.2
2017-04-22T13:03:46.419Z,21.2
2017-04-22T13:04:54.499Z,21.1
2017-04-22T13:06:02.589Z,21.2
2017-04-22T13:07:10.673Z,21.1
2017-04-22T13:08:18.765Z,21.3
2017-04-22T13:09:26.848Z,21.3
2017-04-22T13:10:34.941Z,21.3
2017-04-22T13:11:43.026Z,21.4
2017-04-22T13:12:51.105Z,21.3
2017-04-22T13:13:59.195Z,21.4
2017-04-22T13:15:07.287Z,21.5
2017-04-22T13:16:15.363Z,21.4
2017-04-22T13:17:23.469Z,21.4
2017-04-22T13:18:31.540Z,21.5
2017-04-22T13:19:39.636Z,21.6
2017-04-22T13:20:47.710Z,21.5
2017-04-22T13:21:55.797Z,21.5
2017-04-22T13:23:03.881Z,21.6
2017-04-22T13:24:11.964Z,21.6
2017-04-22T13:25:20.342Z,21.6
2017-04-22T13:26:28.150Z,21.6
2017-04-22T13:27:36.223Z,21.7
2017-04-22T13:28:44.305Z,21.6
2017-04-22T13:29:52.399Z,21.6
2017-04-22T13:31:00.484Z,21.7
2017-04-22T13:32:08.571Z,21.8
2017-04-22T13:33:16.654Z,21.7
2017-04-22T13:34:24.739Z,21.7
2017-04-22T13:35:32.826Z,21.8
2017-04-22T13:36:40.908Z,21.7
2017-04-22T13:37:48.998Z,21.8
2017-04-22T13:38:57.081Z,21.9
2017-04-22T13:40:05.164Z,21.9
2017-04-22T13:41:13.252Z,21.9
2017-04-22T13:42:21.341Z,22.0
2017-04-22T13:43:29.423Z,21.9
2017-04-22T13:44:37.507Z,22.0
2017-04-22T13:45:45.597Z,21.9
2017-04-22T13:46:53.684Z,22.0
2017-04-22T13:48:01.766Z,22.1
2017-04-22T13:49:10.270Z,22.0
2017-04-22T13:50:17.942Z,22.1
2017-04-22T13:51:26.022Z,22.1
2017-04-22T13:52:34.110Z,22.1
2017-04-22T13:53:42.199Z,22.1
2017-04-22T13:54:50.824Z,22.2
2017-04-22T13:55:58.372Z,22.2
2017-04-22T13:57:06.458Z,22.2
2017-04-22T13:58:14.544Z,22.2
2017-04-22T13:59:22.634Z,22.2
2017-04-22T14:00:30.715Z,22.2
2017-04-22T14:01:38.801Z,22.2
2017-04-22T14:02:46.886Z,22.2
2017-04-22T14:03:54.972Z,22.2
2017-04-22T14:05:03.061Z,22.3
2017-04-22T14:06:11.146Z,22.3
2017-04-22T14:07:19.274Z,22.3
2017-04-22T14:08:27.319Z,22.3
2017-04-22T14:09:35.410Z,22.3
2017-04-22T14:10:43.502Z,22.4
2017-04-22T14:11:51.582Z,22.4
2017-04-22T14:12:59.672Z,22.3
2017-04-22T14:14:07.756Z,22.4
2017-04-22T14:15:15.848Z,22.3
2017-04-22T14:16:23.930Z,22.4
2017-04-22T14:17:32.042Z,22.4
2017-04-22T14:18:40.107Z,22.4
2017-04-22T14:19:48.187Z,22.5
2017-04-22T14:20:56.283Z,22.5
2017-04-22T14:22:04.369Z,22.4
2017-04-22T14:23:12.453Z,22.5
2017-04-22T14:24:20.535Z,22.5
2017-04-22T14:25:28.625Z,22.5
2017-04-22T14:26:36.709Z,22.5
2017-04-22T14:27:44.801Z,22.5
2017-04-22T14:28:52.899Z,22.6
2017-04-22T14:30:01.214Z,22.6
2017-04-22T14:31:09.072Z,22.6
2017-04-22T14:32:17.156Z,22.6
2017-04-22T14:33:25.246Z,22.6
2017-04-22T14:34:33.335Z,22.6
2017-04-22T14:35:41.418Z,22.6
2017-04-22T14:36:49.508Z,22.6
2017-04-22T14:37:57.594Z,22.6
2017-04-22T14:39:05.679Z,22.7
2017-04-22T14:40:13.770Z,22.6
2017-04-22T14:41:21.856Z,22.6
2017-04-22T14:42:29.940Z,22.6
2017-04-22T14:43:38.023Z,22.6
2017-04-22T14:44:46.113Z,22.7
2017-04-22T14:45:54.193Z,22.7
2017-04-22T14:47:02.284Z,22.7
2017-04-22T14:48:10.372Z,22.7
2017-04-22T14:49:18.461Z,22.8
2017-04-22T14:50:26.543Z,22.8
2017-04-22T14:51:34.631Z,22.8
2017-04-22T14:52:42.721Z,22.8
2017-04-22T14:53:50.808Z,22.8
2017-04-22T14:54:58.916Z,22.7
2017-04-22T14:56:06.981Z,22.8
2017-04-22T14:57:15.064Z,22.8
2017-04-22T14:58:23.154Z,22.7
2017-04-22T14:59:31.235Z,22.8
2017-04-22T15:00:39.322Z,22.7
2017-04-22T15:01:47.413Z,22.8
2017-04-22T15:02:55.495Z,22.8
2017-04-22T15:04:03.592Z,22.8
2017-04-22T15:05:11.673Z,22.8
2017-04-22T15:06:19.757Z,22.8